sensor_id;sensor_type;location;lat;lon;timestamp;temperature;humidity
38973;DHT22;25333;50.762;4.470;2022-08-19T00:01:15;18.70;99.90
38973;DHT22;25333;50.762;4.470;2022-08-19T00:03:41;18.60;99.90
38973;DHT22;25333;50.762;4.470;2022-08-19T00:06:07;18.60;99.90
38973;DHT22;25333;50.762;4.470;2022-08-19T00:08:32;18.60;99.90
38973;DHT22;25333;50.762;4.470;2022-08-19T00:10:58;18.70;99.90
38973;DHT22;25333;50.762;4.470;2022-08-19T00:13:23;18.70;99.90
38973;DHT22;25333;50.762;4.470;2022-08-19T00:15:49;18.60;99.90
38973;DHT22;25333;50.762;4.470;2022-08-19T00:18:14;18.70;99.90
38973;DHT22;25333;50.762;4.470;2022-08-19T00:20:40;18.60;99.90
38973;DHT22;25333;50.762;4.470;2022-08-19T00:23:06;18.50;99.90
38973;DHT22;25333;50.762;4.470;2022-08-19T00:25:32;18.50;99.90
38973;DHT22;25333;50.762;4.470;2022-08-19T00:27:58;18.50;99.90
38973;DHT22;25333;50.762;4.470;2022-08-19T00:30:24;18.60;99.90
38973;DHT22;25333;50.762;4.470;2022-08-19T00:32:51;18.60;99.90
38973;DHT22;25333;50.762;4.470;2022-08-19T00:35:16;18.50;99.90
38973;DHT22;25333;50.762;4.470;2022-08-19T00:37:43;18.50;99.90
38973;DHT22;25333;50.762;4.470;2022-08-19T00:40:11;18.40;99.90
38973;DHT22;25333;50.762;4.470;2022-08-19T00:42:37;18.40;99.90
38973;DHT22;25333;50.762;4.470;2022-08-19T00:45:10;18.40;99.90
38973;DHT22;25333;50.762;4.470;2022-08-19T00:47:37;18.40;99.90
38973;DHT22;25333;50.762;4.470;2022-08-19T00:50:03;18.50;99.90
38973;DHT22;25333;50.762;4.470;2022-08-19T00:52:32;18.50;99.90
38973;DHT22;25333;50.762;4.470;2022-08-19T00:54:59;18.40;99.90
38973;DHT22;25333;50.762;4.470;2022-08-19T00:57:32;18.40;99.90
38973;DHT22;25333;50.762;4.470;2022-08-19T01:00:00;18.40;99.90
38973;DHT22;25333;50.762;4.470;2022-08-19T01:02:27;18.40;99.90
38973;DHT22;25333;50.762;4.470;2022-08-19T01:04:53;18.30;99.90
38973;DHT22;25333;50.762;4.470;2022-08-19T01:07:19;18.30;99.90
38973;DHT22;25333;50.762;4.470;2022-08-19T01:09:45;18.30;99.90
38973;DHT22;25333;50.762;4.470;2022-08-19T01:12:11;18.20;99.90
38973;DHT22;25333;50.762;4.470;2022-08-19T01:14:38;18.20;99.90
38973;DHT22;25333;50.762;4.470;2022-08-19T01:17:05;18.20;99.90
38973;DHT22;25333;50.762;4.470;2022-08-19T01:19:39;18.30;99.90
38973;DHT22;25333;50.762;4.470;2022-08-19T01:22:07;18.30;99.90
38973;DHT22;25333;50.762;4.470;2022-08-19T01:24:33;18.30;99.90
38973;DHT22;25333;50.762;4.470;2022-08-19T01:26:59;18.20;99.90
38973;DHT22;25333;50.762;4.470;2022-08-19T01:29:25;18.10;99.90
38973;DHT22;25333;50.762;4.470;2022-08-19T01:31:51;18.10;99.90
38973;DHT22;25333;50.762;4.470;2022-08-19T01:34:18;18.10;99.90
38973;DHT22;25333;50.762;4.470;2022-08-19T01:36:46;18.10;99.90
38973;DHT22;25333;50.762;4.470;2022-08-19T01:39:24;18.10;99.90
38973;DHT22;25333;50.762;4.470;2022-08-19T01:41:50;18.10;99.90
38973;DHT22;25333;50.762;4.470;2022-08-19T01:44:17;18.10;99.90
38973;DHT22;25333;50.762;4.470;2022-08-19T01:46:47;18.10;99.90
38973;DHT22;25333;50.762;4.470;2022-08-19T01:49:13;18.10;99.90
38973;DHT22;25333;50.762;4.470;2022-08-19T01:51:39;18.00;99.90
38973;DHT22;25333;50.762;4.470;2022-08-19T01:54:04;18.00;99.90
38973;DHT22;25333;50.762;4.470;2022-08-19T01:56:30;18.00;99.90
38973;DHT22;25333;50.762;4.470;2022-08-19T01:59:00;18.00;99.90
38973;DHT22;25333;50.762;4.470;2022-08-19T02:01:26;18.00;99.90
38973;DHT22;25333;50.762;4.470;2022-08-19T02:03:52;18.00;99.90
38973;DHT22;25333;50.762;4.470;2022-08-19T02:06:19;18.00;99.90
38973;DHT22;25333;50.762;4.470;2022-08-19T02:08:45;17.90;99.90
38973;DHT22;25333;50.762;4.470;2022-08-19T02:11:19;17.80;99.90
38973;DHT22;25333;50.762;4.470;2022-08-19T02:13:45;17.80;99.90
38973;DHT22;25333;50.762;4.470;2022-08-19T02:16:10;17.70;99.90
38973;DHT22;25333;50.762;4.470;2022-08-19T02:18:36;17.70;99.90
38973;DHT22;25333;50.762;4.470;2022-08-19T02:21:01;17.70;99.90
38973;DHT22;25333;50.762;4.470;2022-08-19T02:23:27;17.70;99.90
38973;DHT22;25333;50.762;4.470;2022-08-19T02:25:53;17.70;99.90
38973;DHT22;25333;50.762;4.470;2022-08-19T02:28:18;17.70;99.90
38973;DHT22;25333;50.762;4.470;2022-08-19T02:30:44;17.70;99.90
38973;DHT22;25333;50.762;4.470;2022-08-19T02:33:10;17.70;99.90
38973;DHT22;25333;50.762;4.470;2022-08-19T02:35:36;17.70;99.90
38973;DHT22;25333;50.762;4.470;2022-08-19T02:38:01;17.60;99.90
38973;DHT22;25333;50.762;4.470;2022-08-19T02:40:50;17.50;99.90
38973;DHT22;25333;50.762;4.470;2022-08-19T02:43:17;17.50;99.90
38973;DHT22;25333;50.762;4.470;2022-08-19T02:45:43;17.50;99.90
38973;DHT22;25333;50.762;4.470;2022-08-19T02:48:09;17.50;99.90
38973;DHT22;25333;50.762;4.470;2022-08-19T02:50:38;17.40;99.90
38973;DHT22;25333;50.762;4.470;2022-08-19T02:53:04;17.40;99.90
38973;DHT22;25333;50.762;4.470;2022-08-19T02:55:31;17.40;99.90
38973;DHT22;25333;50.762;4.470;2022-08-19T02:57:57;17.40;99.90
38973;DHT22;25333;50.762;4.470;2022-08-19T03:00:22;17.40;99.90
38973;DHT22;25333;50.762;4.470;2022-08-19T03:02:49;17.40;99.90
38973;DHT22;25333;50.762;4.470;2022-08-19T03:05:15;17.40;99.90
38973;DHT22;25333;50.762;4.470;2022-08-19T03:07:40;17.30;99.90
38973;DHT22;25333;50.762;4.470;2022-08-19T03:10:07;17.30;99.90
38973;DHT22;25333;50.762;4.470;2022-08-19T03:12:35;17.30;99.90
38973;DHT22;25333;50.762;4.470;2022-08-19T03:15:01;17.30;99.90
38973;DHT22;25333;50.762;4.470;2022-08-19T03:17:27;17.20;99.90
38973;DHT22;25333;50.762;4.470;2022-08-19T03:19:52;17.20;99.90
38973;DHT22;25333;50.762;4.470;2022-08-19T03:22:18;17.30;99.90
38973;DHT22;25333;50.762;4.470;2022-08-19T03:24:43;17.30;99.90
38973;DHT22;25333;50.762;4.470;2022-08-19T03:27:09;17.20;99.90
38973;DHT22;25333;50.762;4.470;2022-08-19T03:29:37;17.20;99.90
38973;DHT22;25333;50.762;4.470;2022-08-19T03:32:04;17.20;99.90
38973;DHT22;25333;50.762;4.470;2022-08-19T03:34:32;17.20;99.90
38973;DHT22;25333;50.762;4.470;2022-08-19T03:37:05;17.20;99.90
38973;DHT22;25333;50.762;4.470;2022-08-19T03:39:31;17.20;99.90
38973;DHT22;25333;50.762;4.470;2022-08-19T03:41:57;17.00;99.90
38973;DHT22;25333;50.762;4.470;2022-08-19T03:44:25;17.00;99.90
38973;DHT22;25333;50.762;4.470;2022-08-19T03:46:53;17.00;99.90
38973;DHT22;25333;50.762;4.470;2022-08-19T03:49:21;16.90;99.90
38973;DHT22;25333;50.762;4.470;2022-08-19T03:51:48;17.00;99.90
38973;DHT22;25333;50.762;4.470;2022-08-19T03:54:15;16.90;99.90
38973;DHT22;25333;50.762;4.470;2022-08-19T03:56:43;16.90;99.90
38973;DHT22;25333;50.762;4.470;2022-08-19T03:59:11;16.90;99.90
38973;DHT22;25333;50.762;4.470;2022-08-19T04:01:38;16.90;99.90
38973;DHT22;25333;50.762;4.470;2022-08-19T04:04:04;16.80;99.90
38973;DHT22;25333;50.762;4.470;2022-08-19T04:06:32;16.90;99.90
38973;DHT22;25333;50.762;4.470;2022-08-19T04:09:01;16.90;99.90
38973;DHT22;25333;50.762;4.470;2022-08-19T04:11:31;16.90;99.90
38973;DHT22;25333;50.762;4.470;2022-08-19T04:13:57;16.90;99.90
38973;DHT22;25333;50.762;4.470;2022-08-19T04:16:24;17.00;99.90
38973;DHT22;25333;50.762;4.470;2022-08-19T04:18:50;17.00;99.90
38973;DHT22;25333;50.762;4.470;2022-08-19T04:21:19;17.10;99.90
38973;DHT22;25333;50.762;4.470;2022-08-19T04:23:45;17.10;99.90
38973;DHT22;25333;50.762;4.470;2022-08-19T04:26:19;17.10;99.90
38973;DHT22;25333;50.762;4.470;2022-08-19T04:28:46;17.10;99.90
38973;DHT22;25333;50.762;4.470;2022-08-19T04:31:20;17.10;99.90
38973;DHT22;25333;50.762;4.470;2022-08-19T04:33:46;17.00;99.90
38973;DHT22;25333;50.762;4.470;2022-08-19T04:36:17;17.00;99.90
38973;DHT22;25333;50.762;4.470;2022-08-19T04:38:46;17.00;99.90
38973;DHT22;25333;50.762;4.470;2022-08-19T04:41:11;16.90;99.90
38973;DHT22;25333;50.762;4.470;2022-08-19T04:43:55;16.90;99.90
38973;DHT22;25333;50.762;4.470;2022-08-19T04:46:21;16.90;99.90
38973;DHT22;25333;50.762;4.470;2022-08-19T04:48:47;16.90;99.90
38973;DHT22;25333;50.762;4.470;2022-08-19T04:51:12;16.90;99.90
38973;DHT22;25333;50.762;4.470;2022-08-19T04:53:40;17.00;99.90
38973;DHT22;25333;50.762;4.470;2022-08-19T04:56:09;17.00;99.90
38973;DHT22;25333;50.762;4.470;2022-08-19T04:58:36;16.90;99.90
38973;DHT22;25333;50.762;4.470;2022-08-19T05:01:03;16.90;99.90
38973;DHT22;25333;50.762;4.470;2022-08-19T05:03:29;17.00;99.90
38973;DHT22;25333;50.762;4.470;2022-08-19T05:06:06;17.00;99.90
38973;DHT22;25333;50.762;4.470;2022-08-19T05:08:34;17.10;99.90
38973;DHT22;25333;50.762;4.470;2022-08-19T05:11:00;17.20;99.90
38973;DHT22;25333;50.762;4.470;2022-08-19T05:13:26;17.20;99.90
38973;DHT22;25333;50.762;4.470;2022-08-19T05:15:57;17.30;99.90
38973;DHT22;25333;50.762;4.470;2022-08-19T05:18:22;17.30;99.90
38973;DHT22;25333;50.762;4.470;2022-08-19T05:21:09;17.20;99.90
38973;DHT22;25333;50.762;4.470;2022-08-19T05:23:54;17.20;99.90
38973;DHT22;25333;50.762;4.470;2022-08-19T05:26:20;17.20;99.90
38973;DHT22;25333;50.762;4.470;2022-08-19T05:28:45;17.20;99.90
38973;DHT22;25333;50.762;4.470;2022-08-19T05:31:11;17.30;99.90
38973;DHT22;25333;50.762;4.470;2022-08-19T05:33:38;17.30;99.90
38973;DHT22;25333;50.762;4.470;2022-08-19T05:36:05;17.40;99.90
38973;DHT22;25333;50.762;4.470;2022-08-19T05:38:31;17.30;99.90
38973;DHT22;25333;50.762;4.470;2022-08-19T05:40:57;17.30;99.90
38973;DHT22;25333;50.762;4.470;2022-08-19T05:43:23;17.30;99.90
38973;DHT22;25333;50.762;4.470;2022-08-19T05:45:48;17.30;99.90
38973;DHT22;25333;50.762;4.470;2022-08-19T05:48:15;17.40;99.90
38973;DHT22;25333;50.762;4.470;2022-08-19T05:50:45;17.40;99.90
38973;DHT22;25333;50.762;4.470;2022-08-19T05:53:12;17.40;99.90
38973;DHT22;25333;50.762;4.470;2022-08-19T05:55:37;17.40;99.90
38973;DHT22;25333;50.762;4.470;2022-08-19T05:58:06;17.50;99.90
38973;DHT22;25333;50.762;4.470;2022-08-19T06:00:36;17.50;99.90
38973;DHT22;25333;50.762;4.470;2022-08-19T06:03:02;17.60;99.90
38973;DHT22;25333;50.762;4.470;2022-08-19T06:05:29;17.50;99.90
38973;DHT22;25333;50.762;4.470;2022-08-19T06:07:56;17.50;99.90
38973;DHT22;25333;50.762;4.470;2022-08-19T06:10:22;17.60;99.90
38973;DHT22;25333;50.762;4.470;2022-08-19T06:12:48;17.60;99.90
38973;DHT22;25333;50.762;4.470;2022-08-19T06:15:14;17.60;99.90
38973;DHT22;25333;50.762;4.470;2022-08-19T06:17:41;17.80;99.90
38973;DHT22;25333;50.762;4.470;2022-08-19T06:20:10;17.80;99.90
38973;DHT22;25333;50.762;4.470;2022-08-19T06:22:45;17.90;99.90
38973;DHT22;25333;50.762;4.470;2022-08-19T06:25:14;18.00;99.90
38973;DHT22;25333;50.762;4.470;2022-08-19T06:27:43;18.00;99.90
38973;DHT22;25333;50.762;4.470;2022-08-19T06:30:13;18.10;99.90
38973;DHT22;25333;50.762;4.470;2022-08-19T06:32:40;18.10;99.90
38973;DHT22;25333;50.762;4.470;2022-08-19T06:35:07;18.20;99.90
38973;DHT22;25333;50.762;4.470;2022-08-19T06:37:45;18.10;99.90
38973;DHT22;25333;50.762;4.470;2022-08-19T06:40:11;18.10;99.90
38973;DHT22;25333;50.762;4.470;2022-08-19T06:42:46;18.20;99.90
38973;DHT22;25333;50.762;4.470;2022-08-19T06:45:28;18.40;99.90
38973;DHT22;25333;50.762;4.470;2022-08-19T06:47:53;18.40;99.90
38973;DHT22;25333;50.762;4.470;2022-08-19T06:50:22;18.40;99.90
38973;DHT22;25333;50.762;4.470;2022-08-19T06:52:49;18.50;99.90
38973;DHT22;25333;50.762;4.470;2022-08-19T06:55:14;18.60;99.90
38973;DHT22;25333;50.762;4.470;2022-08-19T06:57:42;18.60;99.90
38973;DHT22;25333;50.762;4.470;2022-08-19T07:00:26;18.60;99.90
38973;DHT22;25333;50.762;4.470;2022-08-19T07:03:24;18.60;99.90
38973;DHT22;25333;50.762;4.470;2022-08-19T07:05:49;18.70;99.90
38973;DHT22;25333;50.762;4.470;2022-08-19T07:08:15;18.80;99.90
38973;DHT22;25333;50.762;4.470;2022-08-19T07:10:45;18.80;99.90
38973;DHT22;25333;50.762;4.470;2022-08-19T07:13:11;18.80;99.90
38973;DHT22;25333;50.762;4.470;2022-08-19T07:15:52;18.80;99.90
38973;DHT22;25333;50.762;4.470;2022-08-19T07:18:20;18.80;99.90
38973;DHT22;25333;50.762;4.470;2022-08-19T07:20:46;18.90;99.90
38973;DHT22;25333;50.762;4.470;2022-08-19T07:23:13;19.00;99.90
38973;DHT22;25333;50.762;4.470;2022-08-19T07:25:39;19.00;99.90
38973;DHT22;25333;50.762;4.470;2022-08-19T07:28:05;19.10;99.90
38973;DHT22;25333;50.762;4.470;2022-08-19T07:30:32;19.10;99.90
38973;DHT22;25333;50.762;4.470;2022-08-19T07:33:01;19.10;99.90
38973;DHT22;25333;50.762;4.470;2022-08-19T07:35:27;19.10;99.90
38973;DHT22;25333;50.762;4.470;2022-08-19T07:37:57;19.20;99.90
38973;DHT22;25333;50.762;4.470;2022-08-19T07:40:23;19.30;99.90
38973;DHT22;25333;50.762;4.470;2022-08-19T07:42:49;19.40;99.90
38973;DHT22;25333;50.762;4.470;2022-08-19T07:45:15;19.60;99.90
38973;DHT22;25333;50.762;4.470;2022-08-19T07:47:41;19.70;99.90
38973;DHT22;25333;50.762;4.470;2022-08-19T07:50:09;19.80;99.90
38973;DHT22;25333;50.762;4.470;2022-08-19T07:52:36;19.80;99.90
38973;DHT22;25333;50.762;4.470;2022-08-19T07:55:06;19.70;99.90
38973;DHT22;25333;50.762;4.470;2022-08-19T07:57:32;19.60;99.90
38973;DHT22;25333;50.762;4.470;2022-08-19T07:59:58;19.60;99.90
38973;DHT22;25333;50.762;4.470;2022-08-19T08:02:23;19.60;99.90
38973;DHT22;25333;50.762;4.470;2022-08-19T08:04:49;19.70;99.90
38973;DHT22;25333;50.762;4.470;2022-08-19T08:07:33;19.60;99.90
38973;DHT22;25333;50.762;4.470;2022-08-19T08:10:31;19.70;99.90
38973;DHT22;25333;50.762;4.470;2022-08-19T08:12:57;19.80;99.90
38973;DHT22;25333;50.762;4.470;2022-08-19T08:15:25;19.70;99.90
38973;DHT22;25333;50.762;4.470;2022-08-19T08:17:51;19.80;99.90
38973;DHT22;25333;50.762;4.470;2022-08-19T08:20:18;19.90;99.90
38973;DHT22;25333;50.762;4.470;2022-08-19T08:22:47;19.90;99.90
38973;DHT22;25333;50.762;4.470;2022-08-19T08:25:32;20.00;99.90
38973;DHT22;25333;50.762;4.470;2022-08-19T08:27:58;20.00;99.90
38973;DHT22;25333;50.762;4.470;2022-08-19T08:30:28;20.00;99.90
38973;DHT22;25333;50.762;4.470;2022-08-19T08:32:54;20.10;99.90
38973;DHT22;25333;50.762;4.470;2022-08-19T08:35:22;20.10;99.90
38973;DHT22;25333;50.762;4.470;2022-08-19T08:37:50;20.20;99.90
38973;DHT22;25333;50.762;4.470;2022-08-19T08:42:48;20.30;99.90
38973;DHT22;25333;50.762;4.470;2022-08-19T08:45:18;20.40;99.90
38973;DHT22;25333;50.762;4.470;2022-08-19T08:47:47;20.30;99.90
38973;DHT22;25333;50.762;4.470;2022-08-19T08:50:36;20.40;99.90
38973;DHT22;25333;50.762;4.470;2022-08-19T08:53:06;20.50;99.90
38973;DHT22;25333;50.762;4.470;2022-08-19T08:55:33;20.60;99.90
38973;DHT22;25333;50.762;4.470;2022-08-19T08:58:05;20.50;99.90
38973;DHT22;25333;50.762;4.470;2022-08-19T09:00:35;20.60;99.90
38973;DHT22;25333;50.762;4.470;2022-08-19T09:03:09;20.70;99.90
38973;DHT22;25333;50.762;4.470;2022-08-19T09:06:01;20.70;99.90
38973;DHT22;25333;50.762;4.470;2022-08-19T09:08:36;20.60;99.90
38973;DHT22;25333;50.762;4.470;2022-08-19T09:11:08;20.50;99.90
38973;DHT22;25333;50.762;4.470;2022-08-19T09:13:46;20.50;99.90
38973;DHT22;25333;50.762;4.470;2022-08-19T09:16:18;20.50;99.90
38973;DHT22;25333;50.762;4.470;2022-08-19T09:18:58;20.60;99.90
38973;DHT22;25333;50.762;4.470;2022-08-19T09:21:26;20.60;99.90
38973;DHT22;25333;50.762;4.470;2022-08-19T09:23:52;20.70;99.90
38973;DHT22;25333;50.762;4.470;2022-08-19T09:26:20;20.80;99.90
38973;DHT22;25333;50.762;4.470;2022-08-19T09:28:48;20.80;99.90
38973;DHT22;25333;50.762;4.470;2022-08-19T09:31:17;20.80;99.90
38973;DHT22;25333;50.762;4.470;2022-08-19T09:33:44;20.80;99.90
38973;DHT22;25333;50.762;4.470;2022-08-19T09:36:12;20.80;99.90
38973;DHT22;25333;50.762;4.470;2022-08-19T09:38:39;20.80;99.90
38973;DHT22;25333;50.762;4.470;2022-08-19T09:41:13;20.80;99.90
38973;DHT22;25333;50.762;4.470;2022-08-19T09:43:39;20.90;99.90
38973;DHT22;25333;50.762;4.470;2022-08-19T09:46:06;21.00;99.90
38973;DHT22;25333;50.762;4.470;2022-08-19T09:48:35;21.00;99.90
38973;DHT22;25333;50.762;4.470;2022-08-19T09:51:23;21.00;99.90
38973;DHT22;25333;50.762;4.470;2022-08-19T09:53:50;21.00;99.90
38973;DHT22;25333;50.762;4.470;2022-08-19T09:56:18;21.10;99.90
38973;DHT22;25333;50.762;4.470;2022-08-19T09:58:44;21.20;99.90
38973;DHT22;25333;50.762;4.470;2022-08-19T10:01:25;21.10;99.90
38973;DHT22;25333;50.762;4.470;2022-08-19T10:03:53;21.10;99.90
38973;DHT22;25333;50.762;4.470;2022-08-19T10:06:21;21.10;99.90
38973;DHT22;25333;50.762;4.470;2022-08-19T10:08:48;21.10;99.90
38973;DHT22;25333;50.762;4.470;2022-08-19T10:11:14;21.00;99.90
38973;DHT22;25333;50.762;4.470;2022-08-19T10:13:43;21.10;99.90
38973;DHT22;25333;50.762;4.470;2022-08-19T10:16:15;21.20;99.90
38973;DHT22;25333;50.762;4.470;2022-08-19T10:18:42;21.20;99.90
38973;DHT22;25333;50.762;4.470;2022-08-19T10:21:21;21.20;99.90
38973;DHT22;25333;50.762;4.470;2022-08-19T10:23:49;21.10;99.90
38973;DHT22;25333;50.762;4.470;2022-08-19T10:26:22;21.10;99.90
38973;DHT22;25333;50.762;4.470;2022-08-19T10:28:48;21.20;99.90
38973;DHT22;25333;50.762;4.470;2022-08-19T10:31:28;21.10;99.90
38973;DHT22;25333;50.762;4.470;2022-08-19T10:33:54;21.10;99.90
38973;DHT22;25333;50.762;4.470;2022-08-19T10:36:26;21.10;99.90
38973;DHT22;25333;50.762;4.470;2022-08-19T10:38:59;21.20;99.90
38973;DHT22;25333;50.762;4.470;2022-08-19T10:41:32;21.20;99.90
38973;DHT22;25333;50.762;4.470;2022-08-19T10:44:00;21.30;99.90
38973;DHT22;25333;50.762;4.470;2022-08-19T10:46:28;21.30;99.90
38973;DHT22;25333;50.762;4.470;2022-08-19T10:48:56;21.40;99.90
38973;DHT22;25333;50.762;4.470;2022-08-19T10:51:22;21.40;99.90
38973;DHT22;25333;50.762;4.470;2022-08-19T10:54:06;21.40;99.90
38973;DHT22;25333;50.762;4.470;2022-08-19T10:56:32;21.50;99.90
38973;DHT22;25333;50.762;4.470;2022-08-19T10:59:18;21.40;99.90
38973;DHT22;25333;50.762;4.470;2022-08-19T11:01:47;21.50;99.90
38973;DHT22;25333;50.762;4.470;2022-08-19T11:04:13;21.50;99.90
38973;DHT22;25333;50.762;4.470;2022-08-19T11:06:46;21.60;99.90
38973;DHT22;25333;50.762;4.470;2022-08-19T11:09:17;21.60;99.90
38973;DHT22;25333;50.762;4.470;2022-08-19T11:11:43;21.60;99.90
38973;DHT22;25333;50.762;4.470;2022-08-19T11:14:12;21.60;99.90
38973;DHT22;25333;50.762;4.470;2022-08-19T11:16:42;21.60;99.90
38973;DHT22;25333;50.762;4.470;2022-08-19T11:19:10;21.60;99.90
38973;DHT22;25333;50.762;4.470;2022-08-19T11:21:42;21.50;99.90
38973;DHT22;25333;50.762;4.470;2022-08-19T11:24:23;21.50;99.90
38973;DHT22;25333;50.762;4.470;2022-08-19T11:29:45;21.40;99.90
38973;DHT22;25333;50.762;4.470;2022-08-19T11:32:10;21.40;99.90
38973;DHT22;25333;50.762;4.470;2022-08-19T11:34:39;21.40;99.90
38973;DHT22;25333;50.762;4.470;2022-08-19T11:37:39;21.40;99.90
38973;DHT22;25333;50.762;4.470;2022-08-19T11:40:06;21.60;99.90
38973;DHT22;25333;50.762;4.470;2022-08-19T11:42:32;21.70;99.90
38973;DHT22;25333;50.762;4.470;2022-08-19T11:45:16;21.90;99.90
38973;DHT22;25333;50.762;4.470;2022-08-19T11:47:42;22.00;99.90
38973;DHT22;25333;50.762;4.470;2022-08-19T11:50:14;21.90;99.90
38973;DHT22;25333;50.762;4.470;2022-08-19T11:52:40;21.90;99.90
38973;DHT22;25333;50.762;4.470;2022-08-19T11:55:06;21.90;99.90
38973;DHT22;25333;50.762;4.470;2022-08-19T11:57:32;22.00;99.90
38973;DHT22;25333;50.762;4.470;2022-08-19T11:59:58;22.00;99.90
38973;DHT22;25333;50.762;4.470;2022-08-19T12:02:23;22.00;99.90
38973;DHT22;25333;50.762;4.470;2022-08-19T12:04:49;22.20;99.90
38973;DHT22;25333;50.762;4.470;2022-08-19T12:07:16;22.30;99.90
38973;DHT22;25333;50.762;4.470;2022-08-19T12:09:43;22.30;99.90
38973;DHT22;25333;50.762;4.470;2022-08-19T12:12:13;22.50;99.90
38973;DHT22;25333;50.762;4.470;2022-08-19T12:14:48;22.50;99.90
38973;DHT22;25333;50.762;4.470;2022-08-19T12:17:16;22.60;99.90
38973;DHT22;25333;50.762;4.470;2022-08-19T12:19:59;22.60;99.90
38973;DHT22;25333;50.762;4.470;2022-08-19T12:22:25;22.80;99.90
38973;DHT22;25333;50.762;4.470;2022-08-19T12:24:53;22.80;99.90
38973;DHT22;25333;50.762;4.470;2022-08-19T12:27:22;22.80;99.90
38973;DHT22;25333;50.762;4.470;2022-08-19T12:29:49;22.90;99.90
38973;DHT22;25333;50.762;4.470;2022-08-19T12:32:25;23.00;99.90
38973;DHT22;25333;50.762;4.470;2022-08-19T12:34:51;23.10;99.90
38973;DHT22;25333;50.762;4.470;2022-08-19T12:37:20;23.10;99.90
38973;DHT22;25333;50.762;4.470;2022-08-19T12:40:01;23.10;99.50
38973;DHT22;25333;50.762;4.470;2022-08-19T12:42:27;23.10;99.90
38973;DHT22;25333;50.762;4.470;2022-08-19T12:44:53;23.20;99.50
38973;DHT22;25333;50.762;4.470;2022-08-19T12:47:18;23.20;99.90
38973;DHT22;25333;50.762;4.470;2022-08-19T12:49:44;23.20;99.60
38973;DHT22;25333;50.762;4.470;2022-08-19T12:52:11;23.30;99.70
38973;DHT22;25333;50.762;4.470;2022-08-19T12:54:49;23.30;99.20
38973;DHT22;25333;50.762;4.470;2022-08-19T12:57:23;23.30;99.30
38973;DHT22;25333;50.762;4.470;2022-08-19T12:59:53;23.40;98.40
38973;DHT22;25333;50.762;4.470;2022-08-19T13:02:21;23.40;98.50
38973;DHT22;25333;50.762;4.470;2022-08-19T13:04:47;23.40;98.80
38973;DHT22;25333;50.762;4.470;2022-08-19T13:07:13;23.50;98.80
38973;DHT22;25333;50.762;4.470;2022-08-19T13:09:39;23.60;98.90
38973;DHT22;25333;50.762;4.470;2022-08-19T13:12:09;23.60;98.80
38973;DHT22;25333;50.762;4.470;2022-08-19T13:14:39;23.80;99.00
38973;DHT22;25333;50.762;4.470;2022-08-19T13:17:08;23.90;98.40
38973;DHT22;25333;50.762;4.470;2022-08-19T13:19:36;23.90;97.20
38973;DHT22;25333;50.762;4.470;2022-08-19T13:22:05;23.70;97.60
38973;DHT22;25333;50.762;4.470;2022-08-19T13:24:31;23.90;98.00
38973;DHT22;25333;50.762;4.470;2022-08-19T13:27:03;23.90;97.40
38973;DHT22;25333;50.762;4.470;2022-08-19T13:29:29;24.00;97.90
38973;DHT22;25333;50.762;4.470;2022-08-19T13:32:16;24.00;97.80
38973;DHT22;25333;50.762;4.470;2022-08-19T13:35:07;24.10;97.20
38973;DHT22;25333;50.762;4.470;2022-08-19T13:37:35;24.10;96.70
38973;DHT22;25333;50.762;4.470;2022-08-19T13:40:16;24.10;97.40
38973;DHT22;25333;50.762;4.470;2022-08-19T13:43:08;24.20;97.10
38973;DHT22;25333;50.762;4.470;2022-08-19T13:45:37;24.10;96.60
38973;DHT22;25333;50.762;4.470;2022-08-19T13:48:05;24.20;97.00
38973;DHT22;25333;50.762;4.470;2022-08-19T13:50:53;24.30;96.70
38973;DHT22;25333;50.762;4.470;2022-08-19T13:53:19;24.40;96.40
38973;DHT22;25333;50.762;4.470;2022-08-19T13:55:45;24.50;96.50
38973;DHT22;25333;50.762;4.470;2022-08-19T13:58:12;24.50;96.10
38973;DHT22;25333;50.762;4.470;2022-08-19T14:00:42;24.60;96.30
38973;DHT22;25333;50.762;4.470;2022-08-19T14:03:15;24.50;95.60
38973;DHT22;25333;50.762;4.470;2022-08-19T14:05:40;24.40;96.20
38973;DHT22;25333;50.762;4.470;2022-08-19T14:08:06;24.30;96.30
38973;DHT22;25333;50.762;4.470;2022-08-19T14:10:32;24.30;96.30
38973;DHT22;25333;50.762;4.470;2022-08-19T14:13:02;24.40;96.50
38973;DHT22;25333;50.762;4.470;2022-08-19T14:15:29;24.30;96.10
38973;DHT22;25333;50.762;4.470;2022-08-19T14:17:55;24.30;96.90
38973;DHT22;25333;50.762;4.470;2022-08-19T14:20:21;24.30;96.40
38973;DHT22;25333;50.762;4.470;2022-08-19T14:22:48;24.20;96.30
38973;DHT22;25333;50.762;4.470;2022-08-19T14:25:19;24.10;96.70
38973;DHT22;25333;50.762;4.470;2022-08-19T14:27:45;23.90;97.20
38973;DHT22;25333;50.762;4.470;2022-08-19T14:30:15;23.80;97.30
38973;DHT22;25333;50.762;4.470;2022-08-19T14:32:49;23.80;97.70
38973;DHT22;25333;50.762;4.470;2022-08-19T14:35:16;23.70;98.10
38973;DHT22;25333;50.762;4.470;2022-08-19T14:37:44;23.50;98.40
38973;DHT22;25333;50.762;4.470;2022-08-19T14:40:11;23.30;98.60
38973;DHT22;25333;50.762;4.470;2022-08-19T14:42:37;23.10;99.00
38973;DHT22;25333;50.762;4.470;2022-08-19T14:45:04;23.00;99.50
38973;DHT22;25333;50.762;4.470;2022-08-19T14:47:30;22.80;99.90
38973;DHT22;25333;50.762;4.470;2022-08-19T14:49:57;22.80;99.90
38973;DHT22;25333;50.762;4.470;2022-08-19T14:52:23;22.90;99.90
38973;DHT22;25333;50.762;4.470;2022-08-19T14:54:52;22.80;99.90
38973;DHT22;25333;50.762;4.470;2022-08-19T14:57:18;22.90;99.90
38973;DHT22;25333;50.762;4.470;2022-08-19T14:59:47;23.00;99.90
38973;DHT22;25333;50.762;4.470;2022-08-19T15:02:20;23.00;99.90
38973;DHT22;25333;50.762;4.470;2022-08-19T15:04:46;23.10;99.80
38973;DHT22;25333;50.762;4.470;2022-08-19T15:07:12;23.20;99.80
38973;DHT22;25333;50.762;4.470;2022-08-19T15:09:37;23.20;99.90
38973;DHT22;25333;50.762;4.470;2022-08-19T15:12:03;23.30;99.80
38973;DHT22;25333;50.762;4.470;2022-08-19T15:14:29;23.40;99.20
38973;DHT22;25333;50.762;4.470;2022-08-19T15:17:01;23.40;99.50
38973;DHT22;25333;50.762;4.470;2022-08-19T15:19:26;23.40;99.70
38973;DHT22;25333;50.762;4.470;2022-08-19T15:21:52;23.40;99.40
38973;DHT22;25333;50.762;4.470;2022-08-19T15:24:21;23.40;99.50
38973;DHT22;25333;50.762;4.470;2022-08-19T15:26:52;23.40;99.80
38973;DHT22;25333;50.762;4.470;2022-08-19T15:29:24;23.40;99.90
38973;DHT22;25333;50.762;4.470;2022-08-19T15:31:54;23.30;99.90
38973;DHT22;25333;50.762;4.470;2022-08-19T15:34:24;23.30;99.80
38973;DHT22;25333;50.762;4.470;2022-08-19T15:36:51;23.20;99.90
38973;DHT22;25333;50.762;4.470;2022-08-19T15:39:18;23.20;99.90
38973;DHT22;25333;50.762;4.470;2022-08-19T15:41:46;23.30;99.90
38973;DHT22;25333;50.762;4.470;2022-08-19T15:44:13;23.20;99.80
38973;DHT22;25333;50.762;4.470;2022-08-19T15:46:52;23.20;99.80